Time;durP1;ratioP1;P1;durP2;ratioP2;P2;SDS_P1;SDS_P2;PMS_P1;PMS_P2;Temp;Humidity;BMP_temperature;BMP_pressure;BME280_temperature;BME280_humidity;BME280_pressure;Samples;Min_cycle;Max_cycle;Signal;HPM_P1;HPM_P2
2022/09/02 00:01:22;;;;;;;;;1.00;1.00;;;;;19.28;44.08;101790.66;5016605;28;8856;-64
2022/09/02 00:03:51;;;;;;;;;2.00;1.00;;;;;19.25;44.22;101793.88;5018474;28;8835;-64
2022/09/02 00:06:18;;;;;;;;;1.25;1.25;;;;;19.23;44.34;101791.34;5020847;28;9521;-66
2022/09/02 00:08:44;;;;;;;;;0.25;0.25;;;;;19.15;44.18;101783.47;5015968;28;8828;-65
2022/09/02 00:11:15;;;;;;;;;1.75;1.00;;;;;19.09;44.60;101784.38;5009830;28;8933;-65
2022/09/02 00:13:42;;;;;;;;;1.00;1.00;;;;;19.10;44.37;101786.06;5017642;28;8854;-65
2022/09/02 00:16:10;;;;;;;;;1.00;1.00;;;;;19.04;44.25;101784.25;5020601;28;8905;-64
2022/09/02 00:18:38;;;;;;;;;1.00;1.00;;;;;19.01;44.45;101784.69;5033814;28;8941;-64
2022/09/02 00:21:04;;;;;;;;;0.25;0.25;;;;;19.02;44.58;101789.09;5017568;28;8831;-65
2022/09/02 00:23:31;;;;;;;;;1.00;1.00;;;;;19.10;44.52;101782.50;5014651;28;8885;-65
2022/09/02 00:25:57;;;;;;;;;2.00;1.25;;;;;19.10;44.37;101790.69;5018402;28;8920;-64
2022/09/02 00:28:24;;;;;;;;;1.75;1.00;;;;;19.07;44.41;101781.03;5025599;28;9557;-65
2022/09/02 00:30:50;;;;;;;;;1.00;1.00;;;;;18.98;44.47;101777.78;5026478;28;8821;-65
2022/09/02 00:33:17;;;;;;;;;1.00;1.00;;;;;18.94;44.60;101775.75;5042212;28;8910;-65
2022/09/02 00:35:43;;;;;;;;;1.75;1.75;;;;;18.89;45.02;101778.31;5025396;28;8845;-65
2022/09/02 00:38:10;;;;;;;;;1.50;1.50;;;;;18.87;45.03;101784.00;5017484;28;8823;-65
2022/09/02 00:40:42;;;;;;;;;1.00;1.00;;;;;18.90;45.31;101780.81;5035044;28;8857;-65
2022/09/02 00:43:09;;;;;;;;;1.00;1.00;;;;;18.95;45.20;101778.22;5027639;28;8842;-65
2022/09/02 00:45:36;;;;;;;;;1.00;1.00;;;;;19.01;45.06;101771.06;5026921;28;8844;-65
2022/09/02 00:48:04;;;;;;;;;2.00;0.00;;;;;19.06;45.13;101773.91;5012616;28;8843;-66
2022/09/02 00:50:34;;;;;;;;;0.00;0.00;;;;;19.03;45.15;101763.47;5018863;28;8840;-65
2022/09/02 00:53:08;;;;;;;;;1.00;1.00;;;;;18.93;45.02;101766.72;5011838;28;8840;-64
2022/09/02 00:55:43;;;;;;;;;0.00;0.00;;;;;18.91;45.15;101771.56;5026236;28;9554;-65
2022/09/02 00:58:31;;;;;;;;;2.00;1.75;;;;;18.87;45.17;101764.06;5015318;28;8824;-65
2022/09/02 01:00:59;;;;;;;;;1.00;1.00;;;;;18.82;45.47;101763.91;5029119;28;8872;-65
2022/09/02 01:03:28;;;;;;;;;1.00;1.00;;;;;18.75;45.49;101758.53;5016991;28;8855;-65
2022/09/02 01:05:56;;;;;;;;;1.00;1.00;;;;;18.68;45.18;101758.56;5027366;28;8824;-65
2022/09/02 01:08:33;;;;;;;;;1.00;1.00;;;;;18.61;45.44;101754.25;5032539;28;8848;-64
2022/09/02 01:11:03;;;;;;;;;0.50;0.50;;;;;18.56;45.31;101754.94;5021591;28;8978;-65
2022/09/02 01:13:38;;;;;;;;;1.00;1.00;;;;;18.44;45.76;101756.72;5017694;28;8870;-64
2022/09/02 01:16:18;;;;;;;;;2.00;2.00;;;;;18.42;46.16;101746.03;5021412;28;8836;-64
2022/09/02 01:18:49;;;;;;;;;2.00;2.00;;;;;18.52;46.09;101748.25;5037034;28;8844;-64
2022/09/02 01:21:16;;;;;;;;;2.00;2.00;;;;;18.51;46.04;101752.88;5031131;28;9919;-64
2022/09/02 01:23:43;;;;;;;;;1.25;1.25;;;;;18.58;45.61;101749.25;5031641;28;8847;-65
2022/09/02 01:26:10;;;;;;;;;0.00;0.00;;;;;18.59;45.68;101750.91;4998869;28;8932;-62
2022/09/02 01:28:37;;;;;;;;;2.00;1.75;;;;;18.56;45.56;101748.66;5014153;28;8827;-65
2022/09/02 01:31:04;;;;;;;;;0.75;0.75;;;;;18.48;45.82;101744.31;5015288;28;8853;-64
2022/09/02 01:33:30;;;;;;;;;1.00;1.00;;;;;18.42;45.77;101743.31;5020744;28;8844;-64
2022/09/02 01:35:58;;;;;;;;;2.00;2.00;;;;;18.43;45.65;101741.41;5030523;28;9546;-65
2022/09/02 01:38:25;;;;;;;;;2.00;1.25;;;;;18.32;45.67;101736.72;5031939;28;8898;-65
2022/09/02 01:40:52;;;;;;;;;1.00;1.00;;;;;18.35;45.80;101737.09;5026143;28;8893;-65
2022/09/02 01:43:24;;;;;;;;;0.00;0.00;;;;;18.40;45.56;101731.81;5023734;28;8832;-65
2022/09/02 01:45:54;;;;;;;;;1.00;1.00;;;;;18.37;45.71;101726.78;5030593;28;8885;-64
2022/09/02 01:48:23;;;;;;;;;1.50;1.00;;;;;18.35;45.34;101725.34;5014738;28;8837;-65
2022/09/02 01:50:55;;;;;;;;;1.75;1.75;;;;;18.31;45.54;101727.69;5019156;28;8902;-65
2022/09/02 01:53:22;;;;;;;;;1.00;1.00;;;;;18.28;45.40;101723.53;5023129;28;8840;-65
2022/09/02 01:55:52;;;;;;;;;0.75;0.75;;;;;18.16;45.64;101728.03;5029622;28;8882;-64
2022/09/02 01:58:18;;;;;;;;;1.75;1.75;;;;;18.13;46.05;101722.19;5026080;28;8831;-63
2022/09/02 02:00:46;;;;;;;;;0.50;0.50;;;;;18.18;45.99;101722.34;5007951;28;8861;-62
2022/09/02 02:03:14;;;;;;;;;1.00;1.00;;;;;18.24;46.07;101716.03;5015139;28;8855;-64
2022/09/02 02:05:42;;;;;;;;;1.00;1.00;;;;;18.25;46.13;101725.84;5032819;28;9439;-64
2022/09/02 02:08:12;;;;;;;;;1.00;1.00;;;;;18.26;46.10;101725.63;4997187;28;8856;-65
2022/09/02 02:10:41;;;;;;;;;1.00;1.00;;;;;18.32;45.96;101725.81;5038313;28;8847;-65
2022/09/02 02:13:10;;;;;;;;;1.25;1.25;;;;;18.27;45.80;101721.00;5021804;28;8828;-64
2022/09/02 02:15:40;;;;;;;;;1.00;1.00;;;;;18.29;45.92;101717.00;5029536;28;8874;-63
2022/09/02 02:18:07;;;;;;;;;0.00;0.00;;;;;18.32;45.81;101717.63;5036049;28;8836;-64
2022/09/02 02:20:34;;;;;;;;;1.00;1.00;;;;;18.28;45.92;101717.25;5038459;28;8835;-64
2022/09/02 02:23:01;;;;;;;;;1.00;1.00;;;;;18.19;45.78;101715.84;5009429;28;8846;-64
2022/09/02 02:25:28;;;;;;;;;1.00;1.00;;;;;18.15;45.90;101720.06;5039403;28;8852;-63
2022/09/02 02:27:55;;;;;;;;;0.75;0.75;;;;;18.11;46.04;101716.13;5016009;28;8815;-65
2022/09/02 02:30:22;;;;;;;;;1.00;1.00;;;;;18.16;46.10;101714.41;5040415;28;8843;-65
2022/09/02 02:32:49;;;;;;;;;1.00;1.00;;;;;18.15;46.38;101706.44;5034339;28;8848;-63
2022/09/02 02:35:19;;;;;;;;;1.75;1.75;;;;;18.13;46.11;101709.41;5023688;28;8874;-63
2022/09/02 02:37:48;;;;;;;;;1.00;1.00;;;;;18.13;45.98;101706.66;5028670;28;8893;-64
2022/09/02 02:40:18;;;;;;;;;1.00;1.00;;;;;17.99;45.90;101711.41;5024382;28;9020;-63
2022/09/02 02:42:46;;;;;;;;;1.00;1.00;;;;;17.94;46.54;101707.66;5000032;28;8823;-63
2022/09/02 02:45:15;;;;;;;;;1.00;1.00;;;;;17.97;46.44;101701.78;5008752;28;8859;-65
2022/09/02 02:47:45;;;;;;;;;1.25;1.25;;;;;17.99;46.44;101707.88;5008050;28;8858;-64
2022/09/02 02:50:16;;;;;;;;;1.00;1.00;;;;;17.99;46.66;101705.97;5009058;28;8827;-63
2022/09/02 02:52:44;;;;;;;;;1.00;1.00;;;;;18.02;46.06;101702.78;5008960;28;8847;-64
2022/09/02 02:55:13;;;;;;;;;1.33;1.00;;;;;17.95;46.65;101707.47;5008914;28;8839;-65
2022/09/02 02:57:43;;;;;;;;;1.00;1.00;;;;;17.96;46.41;101703.69;5009870;28;8987;-65
2022/09/02 03:00:25;;;;;;;;;1.00;1.00;;;;;17.96;46.62;101697.41;5010000;28;8831;-65
2022/09/02 03:02:57;;;;;;;;;1.00;1.00;;;;;17.99;46.44;101703.25;5012610;28;8870;-65
2022/09/02 03:05:25;;;;;;;;;1.00;1.00;;;;;17.97;46.75;101689.00;5028845;28;8849;-65
2022/09/02 03:07:52;;;;;;;;;1.25;1.25;;;;;17.93;46.53;101689.66;5012200;28;8977;-64
2022/09/02 03:10:19;;;;;;;;;2.75;2.75;;;;;17.85;46.77;101695.38;5012540;28;8843;-64
2022/09/02 03:12:46;;;;;;;;;1.00;1.00;;;;;17.89;46.82;101689.28;4996189;28;8831;-64
2022/09/02 03:15:17;;;;;;;;;1.00;1.00;;;;;17.85;46.36;101690.78;5012187;28;8957;-65
2022/09/02 03:17:46;;;;;;;;;0.50;0.50;;;;;17.78;47.12;101690.84;4992477;28;8871;-65
2022/09/02 03:20:15;;;;;;;;;2.00;2.00;;;;;17.78;46.96;101687.25;5012487;28;8949;-64
2022/09/02 03:22:47;;;;;;;;;1.00;1.00;;;;;17.83;47.01;101683.91;5012362;28;8835;-65
2022/09/02 03:25:18;;;;;;;;;2.00;2.00;;;;;17.81;46.85;101683.28;5013346;28;8835;-62
2022/09/02 03:27:46;;;;;;;;;1.50;1.50;;;;;17.71;47.13;101678.31;5012150;28;8847;-64
2022/09/02 03:30:20;;;;;;;;;1.00;1.00;;;;;17.70;47.26;101680.19;5012488;28;8847;-65
2022/09/02 03:32:47;;;;;;;;;1.00;1.00;;;;;17.65;47.50;101674.56;5013782;28;8948;-65
2022/09/02 03:35:17;;;;;;;;;1.00;1.00;;;;;17.58;47.58;101672.94;5013465;28;8927;-64
2022/09/02 03:37:45;;;;;;;;;1.00;1.00;;;;;17.58;47.94;101676.47;5011942;28;8961;-65
2022/09/02 03:40:15;;;;;;;;;1.00;1.00;;;;;17.58;47.65;101679.19;5013322;28;9237;-64
2022/09/02 03:42:42;;;;;;;;;1.25;1.25;;;;;17.59;47.69;101678.16;5012296;28;9590;-65
2022/09/02 03:45:16;;;;;;;;;1.00;1.00;;;;;17.55;48.14;101672.31;5028432;28;8941;-65
2022/09/02 03:47:50;;;;;;;;;1.00;1.00;;;;;17.53;47.74;101663.53;5011843;28;8839;-64
2022/09/02 03:50:36;;;;;;;;;1.00;1.00;;;;;17.57;48.04;101665.81;5012207;28;8957;-65
2022/09/02 03:53:05;;;;;;;;;1.00;1.00;;;;;17.60;47.71;101676.28;5013457;28;8850;-64
2022/09/02 03:55:31;;;;;;;;;0.25;0.25;;;;;17.55;47.69;101664.16;5012166;28;8897;-64
2022/09/02 03:57:58;;;;;;;;;1.00;1.00;;;;;17.48;48.27;101660.66;5028506;28;8859;-62
2022/09/02 04:00:30;;;;;;;;;1.00;1.00;;;;;17.50;48.20;101665.84;5012056;28;8955;-64
2022/09/02 04:03:00;;;;;;;;;1.00;1.00;;;;;17.45;48.22;101657.53;4995978;28;8975;-65
2022/09/02 04:05:28;;;;;;;;;1.00;1.00;;;;;17.46;48.30;101665.50;5011278;28;8839;-64
2022/09/02 04:07:57;;;;;;;;;0.00;0.00;;;;;17.48;48.36;101655.19;5011096;28;8839;-64
2022/09/02 04:10:24;;;;;;;;;1.75;1.75;;;;;17.53;48.44;101655.38;5028056;28;8843;-64
2022/09/02 04:12:52;;;;;;;;;1.00;1.00;;;;;17.64;48.38;101650.28;5010355;28;8936;-64
2022/09/02 04:15:19;;;;;;;;;0.25;0.00;;;;;17.67;47.93;101652.56;5011057;28;8905;-65
2022/09/02 04:17:47;;;;;;;;;1.00;1.00;;;;;17.63;47.72;101649.44;5011232;28;8831;-65
2022/09/02 04:20:17;;;;;;;;;0.00;0.00;;;;;17.63;47.88;101652.16;5011347;28;8863;-65
2022/09/02 04:22:43;;;;;;;;;1.25;1.25;;;;;17.68;48.15;101652.34;5011304;28;8855;-65
2022/09/02 04:25:11;;;;;;;;;1.00;1.00;;;;;17.75;47.97;101652.31;5011000;28;8909;-64
2022/09/02 04:27:37;;;;;;;;;2.00;1.00;;;;;17.76;47.78;101649.38;5011000;28;8917;-64
2022/09/02 04:30:06;;;;;;;;;0.50;0.50;;;;;17.78;48.07;101647.28;5011218;28;8831;-65
2022/09/02 04:32:35;;;;;;;;;1.25;1.25;;;;;17.76;47.98;101643.91;4991574;28;8962;-64
2022/09/02 04:35:07;;;;;;;;;1.00;1.00;;;;;17.70;47.86;101649.38;4992041;28;8829;-64
2022/09/02 04:37:35;;;;;;;;;2.00;2.00;;;;;17.59;48.52;101637.34;5010591;28;8978;-63
2022/09/02 04:40:02;;;;;;;;;0.25;0.25;;;;;17.44;48.46;101639.53;5027404;28;8968;-64
2022/09/02 04:42:29;;;;;;;;;0.50;0.50;;;;;17.43;49.07;101638.72;5007799;28;8857;-65
2022/09/02 04:44:56;;;;;;;;;1.00;1.00;;;;;17.43;48.70;101635.16;5007527;28;8870;-66
2022/09/02 04:47:25;;;;;;;;;1.00;0.50;;;;;17.49;48.92;101642.41;5023380;28;8853;-66
2022/09/02 04:49:53;;;;;;;;;1.00;1.00;;;;;17.43;48.90;101637.88;4991725;28;8936;-66
2022/09/02 04:52:20;;;;;;;;;1.00;1.00;;;;;17.38;48.73;101638.53;5027182;28;8835;-65
2022/09/02 04:54:47;;;;;;;;;1.00;1.00;;;;;17.34;48.74;101639.16;5010617;28;8874;-64
2022/09/02 04:57:15;;;;;;;;;1.00;1.00;;;;;17.24;48.97;101639.66;5010496;28;8870;-65
2022/09/02 04:59:42;;;;;;;;;1.00;1.00;;;;;17.18;49.48;101633.22;5010689;28;8827;-65
2022/09/02 05:02:10;;;;;;;;;2.00;2.00;;;;;17.19;49.46;101632.16;5010997;28;9028;-64
2022/09/02 05:04:37;;;;;;;;;1.75;1.75;;;;;17.10;49.55;101638.94;5011982;28;8850;-63
2022/09/02 05:07:10;;;;;;;;;3.00;1.00;;;;;17.07;49.60;101644.78;5010195;28;8913;-64
2022/09/02 05:09:43;;;;;;;;;1.00;1.00;;;;;17.16;49.55;101642.66;5010996;28;8955;-63
2022/09/02 05:12:10;;;;;;;;;2.50;1.75;;;;;17.16;49.68;101635.31;5010073;28;8935;-63
2022/09/02 05:14:42;;;;;;;;;1.00;1.00;;;;;17.15;49.25;101639.09;5034434;23;8861;-65
2022/09/02 05:17:10;;;;;;;;;2.00;2.00;;;;;17.20;49.42;101641.97;5008578;28;8831;-65
2022/09/02 05:19:40;;;;;;;;;1.75;1.75;;;;;17.24;49.28;101628.78;5010379;28;9004;-67
2022/09/02 05:22:07;;;;;;;;;1.00;1.00;;;;;17.29;49.55;101639.84;5010407;28;8847;-67
2022/09/02 05:24:37;;;;;;;;;1.00;1.00;;;;;17.35;49.32;101633.53;5010138;28;8839;-67
2022/09/02 05:27:09;;;;;;;;;2.00;2.00;;;;;17.30;48.97;101627.91;4987207;28;8907;-67
2022/09/02 05:29:36;;;;;;;;;1.00;1.00;;;;;17.30;49.38;101626.03;4972595;28;8828;-67
2022/09/02 05:32:03;;;;;;;;;2.00;2.00;;;;;17.29;49.37;101627.06;5003043;28;8830;-67
2022/09/02 05:34:32;;;;;;;;;2.00;2.00;;;;;17.32;49.33;101628.53;5006885;28;8837;-67
2022/09/02 05:37:01;;;;;;;;;1.67;1.00;;;;;17.30;49.29;101631.47;4989531;28;8924;-66
2022/09/02 05:39:29;;;;;;;;;0.00;0.00;;;;;17.31;49.14;101629.56;5008072;28;8945;-65
2022/09/02 05:41:57;;;;;;;;;2.67;1.67;;;;;17.29;49.69;101627.06;4992228;28;8833;-67
2022/09/02 05:44:24;;;;;;;;;2.00;1.00;;;;;17.27;49.17;101629.19;4992242;28;8925;-66
2022/09/02 05:46:51;;;;;;;;;2.00;2.00;;;;;17.32;49.29;101633.97;4989099;28;8847;-66
2022/09/02 05:49:20;;;;;;;;;1.00;1.00;;;;;17.24;49.34;101635.06;4988853;28;8992;-67
2022/09/02 05:51:59;;;;;;;;;2.00;2.00;;;;;17.25;49.44;101631.28;4985060;28;8971;-67
2022/09/02 05:54:35;;;;;;;;;3.00;3.00;;;;;17.29;49.48;101637.94;5006602;28;8806;-67
2022/09/02 05:57:11;;;;;;;;;3.00;2.67;;;;;17.27;49.14;101639.22;4989762;28;9033;-67
2022/09/02 05:59:43;;;;;;;;;3.00;3.00;;;;;17.27;48.93;101631.91;4991067;28;8994;-67
2022/09/02 06:02:17;;;;;;;;;1.25;1.00;;;;;17.27;49.15;101621.00;4989392;28;8926;-67
2022/09/02 06:04:47;;;;;;;;;1.00;1.00;;;;;17.26;49.75;101627.53;4993947;28;8857;-66
2022/09/02 06:07:15;;;;;;;;;2.00;2.00;;;;;17.32;49.23;101628.53;4992017;28;8841;-66
2022/09/02 06:09:44;;;;;;;;;1.33;1.00;;;;;17.38;49.06;101629.50;4992355;28;8821;-66
2022/09/02 06:12:13;;;;;;;;;2.25;2.00;;;;;17.38;48.94;101622.22;5006207;28;9021;-67
2022/09/02 06:14:41;;;;;;;;;1.67;1.67;;;;;17.43;48.57;101627.81;4989933;28;8956;-67
2022/09/02 06:17:09;;;;;;;;;2.00;2.00;;;;;17.45;48.54;101627.59;4989472;28;8923;-67
2022/09/02 06:19:43;;;;;;;;;1.33;1.33;;;;;17.48;48.63;101629.88;4995291;28;8849;-67
2022/09/02 06:22:10;;;;;;;;;1.00;1.00;;;;;17.46;48.66;101619.22;5005586;28;8910;-67
2022/09/02 06:24:37;;;;;;;;;1.33;1.00;;;;;17.48;49.30;101633.44;4991070;28;9106;-67
2022/09/02 06:27:09;;;;;;;;;2.00;2.00;;;;;17.48;49.14;101633.44;4989276;28;8950;-68
2022/09/02 06:29:38;;;;;;;;;1.33;1.33;;;;;17.44;48.74;101623.22;4990052;28;8903;-66
2022/09/02 06:32:06;;;;;;;;;2.00;2.00;;;;;17.38;48.75;101630.38;4987296;28;8921;-65
2022/09/02 06:34:34;;;;;;;;;1.75;1.75;;;;;17.41;48.78;101624.47;4988053;28;8870;-65
2022/09/02 06:37:01;;;;;;;;;2.00;2.00;;;;;17.38;48.96;101622.22;4994054;28;8848;-64
2022/09/02 06:39:30;;;;;;;;;1.25;1.25;;;;;17.37;48.76;101619.69;4994491;28;9593;-64
2022/09/02 06:41:57;;;;;;;;;1.00;1.00;;;;;17.33;48.73;101621.19;4993673;28;8861;-66
2022/09/02 06:44:28;;;;;;;;;1.33;1.33;;;;;17.36;48.90;101627.03;5009612;28;8937;-65
2022/09/02 06:46:58;;;;;;;;;2.67;1.67;;;;;17.43;48.71;101625.09;4993153;28;8980;-66
2022/09/02 06:49:27;;;;;;;;;1.75;1.75;;;;;17.41;48.57;101620.91;5009826;28;9027;-65
2022/09/02 06:51:56;;;;;;;;;2.00;2.00;;;;;17.49;48.11;101626.09;4994719;28;8845;-67
2022/09/02 06:54:28;;;;;;;;;1.00;1.00;;;;;17.56;48.88;101621.44;4994719;28;9044;-67
2022/09/02 06:57:04;;;;;;;;;2.00;2.00;;;;;17.59;47.85;101620.16;4993616;28;8920;-68
2022/09/02 06:59:34;;;;;;;;;2.00;2.00;;;;;17.60;47.64;101622.66;4978691;28;9016;-67
2022/09/02 07:02:02;;;;;;;;;1.00;1.00;;;;;17.60;47.86;101619.94;4994261;28;9088;-67
2022/09/02 07:07:21;;;;;;;;;2.00;2.00;;;;;17.62;47.99;101619.69;4994029;28;8983;-67
2022/09/02 07:09:52;;;;;;;;;2.00;2.00;;;;;17.67;48.10;101620.72;4994401;28;8907;-67
2022/09/02 07:12:18;;;;;;;;;1.00;1.00;;;;;17.70;48.15;101613.97;4995473;28;9100;-67
2022/09/02 07:14:56;;;;;;;;;1.67;1.00;;;;;17.69;47.80;101618.59;4995248;28;8896;-67
2022/09/02 07:17:28;;;;;;;;;1.25;1.25;;;;;17.70;48.07;101613.97;5011793;28;9071;-67
2022/09/02 07:20:00;;;;;;;;;1.67;1.67;;;;;17.63;48.39;101614.06;4995430;28;8826;-67
2022/09/02 07:22:30;;;;;;;;;3.00;3.00;;;;;17.72;47.87;101620.06;4991864;28;9007;-67
2022/09/02 07:24:59;;;;;;;;;1.00;1.00;;;;;17.78;48.04;101611.88;4990119;28;8969;-67
2022/09/02 07:27:26;;;;;;;;;1.25;1.00;;;;;17.85;48.00;101613.69;5008421;28;8912;-67
2022/09/02 07:29:55;;;;;;;;;1.00;1.00;;;;;17.90;47.59;101608.38;4992534;28;8965;-67
2022/09/02 07:32:21;;;;;;;;;2.67;2.67;;;;;17.92;47.81;101623.47;4994089;28;8976;-66
2022/09/02 07:34:48;;;;;;;;;1.75;1.75;;;;;17.91;47.69;101610.91;5010374;28;8980;-65
2022/09/02 07:37:14;;;;;;;;;2.00;2.00;;;;;17.96;47.88;101612.94;4990415;28;8836;-65
2022/09/02 07:39:42;;;;;;;;;1.75;1.75;;;;;17.99;47.41;101609.78;4976288;28;8870;-65
2022/09/02 07:42:10;;;;;;;;;3.33;3.00;;;;;17.97;48.23;101609.16;5008464;28;8842;-68
2022/09/02 07:44:37;;;;;;;;;2.75;2.00;;;;;18.05;48.12;101606.16;5010398;28;9015;-66
2022/09/02 07:47:05;;;;;;;;;1.50;1.50;;;;;18.12;48.48;101600.63;4993483;28;8852;-66
2022/09/02 07:49:34;;;;;;;;;3.75;3.00;;;;;18.17;48.53;101600.78;5011038;28;8829;-66
2022/09/02 07:52:21;;;;;;;;;2.00;2.00;;;;;18.26;48.30;101602.16;5010717;28;8861;-67
2022/09/02 07:54:49;;;;;;;;;3.00;3.00;;;;;18.19;47.99;101610.41;4994492;28;8837;-65
2022/09/02 07:57:16;;;;;;;;;1.25;1.25;;;;;18.12;48.42;101597.91;4995445;28;8852;-65
2022/09/02 07:59:45;;;;;;;;;3.00;2.00;;;;;18.14;49.00;101607.50;4994630;28;8845;-65
2022/09/02 08:02:14;;;;;;;;;3.75;2.75;;;;;18.18;48.41;101597.00;4990549;28;8860;-67
2022/09/02 08:04:42;;;;;;;;;1.50;1.50;;;;;18.23;48.96;101597.13;4995136;28;8856;-67
2022/09/02 08:07:10;;;;;;;;;2.00;1.00;;;;;18.32;48.95;101600.44;4987814;28;9866;-66
2022/09/02 08:09:36;;;;;;;;;2.00;2.00;;;;;18.32;49.10;101592.25;4973956;28;8854;-66
2022/09/02 08:12:03;;;;;;;;;1.75;1.00;;;;;18.39;48.78;101591.13;4990253;28;8817;-67
2022/09/02 08:14:29;;;;;;;;;3.00;3.00;;;;;18.46;49.05;101596.47;4993499;28;8883;-66
2022/09/02 08:16:57;;;;;;;;;2.00;2.00;;;;;18.53;49.14;101592.59;4994537;28;8841;-66
2022/09/02 08:19:24;;;;;;;;;2.25;2.00;;;;;18.55;48.95;101595.09;4994726;28;8841;-66
2022/09/02 08:21:51;;;;;;;;;1.75;1.75;;;;;18.58;48.73;101586.47;4994855;28;8957;-66
2022/09/02 08:24:17;;;;;;;;;3.00;3.00;;;;;18.61;49.17;101585.19;4995033;28;8944;-67
2022/09/02 08:26:44;;;;;;;;;1.00;1.00;;;;;18.66;48.45;101588.03;4993911;28;9049;-67
2022/09/02 08:29:10;;;;;;;;;3.00;2.75;;;;;18.72;48.52;101592.63;4994150;28;8817;-66
2022/09/02 08:31:38;;;;;;;;;5.00;3.75;;;;;18.73;48.41;101588.81;4994462;28;8825;-66
2022/09/02 08:34:04;;;;;;;;;2.25;2.00;;;;;18.80;48.40;101586.00;4994359;28;8986;-66
2022/09/02 08:36:31;;;;;;;;;4.00;3.75;;;;;18.83;48.42;101588.25;4993420;28;8834;-65
2022/09/02 08:39:00;;;;;;;;;2.75;2.75;;;;;18.90;48.55;101589.00;4994190;28;8940;-66
2022/09/02 08:41:43;;;;;;;;;4.00;3.00;;;;;18.94;48.57;101584.75;4994124;28;8826;-65
2022/09/02 08:44:19;;;;;;;;;2.25;2.25;;;;;18.98;49.03;101577.78;4994641;28;8814;-68
2022/09/02 08:46:46;;;;;;;;;3.00;3.00;;;;;19.03;48.59;101578.72;4993220;28;8920;-64
2022/09/02 08:49:24;;;;;;;;;1.50;1.50;;;;;19.06;48.52;101587.53;4994213;28;8928;-65
2022/09/02 08:51:56;;;;;;;;;2.00;2.00;;;;;19.09;48.99;101576.97;4993757;28;8923;-65
2022/09/02 08:54:44;;;;;;;;;3.00;3.00;;;;;19.17;49.13;101567.63;4993620;28;8822;-64
2022/09/02 08:57:11;;;;;;;;;3.00;1.00;;;;;19.17;49.35;101573.91;4992914;28;8969;-66
2022/09/02 08:59:38;;;;;;;;;2.00;2.00;;;;;19.18;49.58;101572.84;4993040;28;8959;-65
2022/09/02 09:02:23;;;;;;;;;2.25;2.00;;;;;19.23;49.46;101572.97;4991762;28;8838;-65
2022/09/02 09:05:11;;;;;;;;;2.00;2.00;;;;;19.27;48.82;101574.16;4992564;28;8829;-66
2022/09/02 09:07:48;;;;;;;;;2.25;2.25;;;;;19.27;49.14;101568.69;4972624;28;8958;-67
2022/09/02 09:10:51;;;;;;;;;2.00;2.00;;;;;19.31;49.14;101570.97;4974944;28;8844;-67
2022/09/02 09:13:36;;;;;;;;;2.25;2.25;;;;;19.32;49.12;101570.72;4992193;28;8834;-67
2022/09/02 09:16:44;;;;;;;;;3.00;2.00;;;;;19.29;48.99;101568.50;4993460;28;8856;-66
2022/09/02 09:19:14;;;;;;;;;4.50;2.75;;;;;19.39;49.06;101573.38;4991180;28;8830;-66
2022/09/02 09:21:42;;;;;;;;;2.00;2.00;;;;;19.45;48.65;101561.50;4992570;28;8830;-68
2022/09/02 09:24:21;;;;;;;;;2.00;2.00;;;;;19.50;48.99;101561.63;4992308;28;8856;-67
2022/09/02 09:26:48;;;;;;;;;4.25;4.25;;;;;19.59;48.51;101565.66;4991468;28;8888;-68
2022/09/02 09:29:14;;;;;;;;;4.00;4.00;;;;;19.60;48.63;101561.84;4991786;28;8821;-68
2022/09/02 09:31:41;;;;;;;;;4.00;2.75;;;;;19.67;48.53;101559.88;4991499;28;8810;-67
2022/09/02 09:34:13;;;;;;;;;3.25;2.50;;;;;19.74;48.45;101566.06;4990753;28;8838;-68
2022/09/02 09:36:39;;;;;;;;;3.00;3.00;;;;;19.83;47.82;101560.25;4990971;28;8842;-68
2022/09/02 09:39:30;;;;;;;;;2.75;2.75;;;;;19.88;47.24;101554.88;4992644;28;9054;-68
2022/09/02 09:42:02;;;;;;;;;2.00;2.00;;;;;19.90;47.29;101556.31;4983265;28;8859;-67
2022/09/02 09:44:29;;;;;;;;;3.75;3.75;;;;;19.92;47.56;101567.81;4992321;28;8826;-68
2022/09/02 09:47:07;;;;;;;;;3.00;3.00;;;;;19.97;47.73;101551.56;4990742;28;9554;-68
2022/09/02 09:49:35;;;;;;;;;4.25;3.75;;;;;20.04;47.32;101559.63;4991237;28;8874;-66
2022/09/02 09:52:02;;;;;;;;;4.75;4.75;;;;;20.14;46.41;101556.28;4991185;28;8829;-66
2022/09/02 09:54:29;;;;;;;;;4.00;4.00;;;;;20.17;46.22;101555.78;4991421;28;8903;-66
2022/09/02 09:57:14;;;;;;;;;3.00;3.00;;;;;20.19;46.01;101548.19;4992031;28;8829;-65
2022/09/02 09:59:48;;;;;;;;;3.75;3.75;;;;;20.22;45.86;101554.03;4992829;28;8813;-65
2022/09/02 10:02:23;;;;;;;;;2.00;2.00;;;;;20.28;45.37;101556.84;4991186;28;8852;-66
2022/09/02 10:05:14;;;;;;;;;3.00;3.00;;;;;20.25;45.73;101555.41;4990999;28;8821;-67
2022/09/02 10:07:42;;;;;;;;;3.75;3.75;;;;;20.31;45.37;101550.91;4990865;28;8968;-67
2022/09/02 10:10:25;;;;;;;;;2.50;2.50;;;;;20.41;45.55;101548.38;4990845;28;8857;-67
2022/09/02 10:12:56;;;;;;;;;4.00;4.00;;;;;20.42;45.59;101548.16;4991137;28;8853;-66
2022/09/02 10:16:13;;;;;;;;;5.75;5.75;;;;;20.47;45.29;101545.50;5006281;28;8829;-67
2022/09/02 10:18:48;;;;;;;;;4.00;4.00;;;;;20.58;45.50;101552.06;4968801;28;8853;-66
2022/09/02 10:22:03;;;;;;;;;5.00;5.00;;;;;20.67;45.31;101545.09;4989282;28;8851;-67
2022/09/02 10:24:41;;;;;;;;;6.25;4.00;;;;;20.73;45.06;101544.09;4981350;28;8876;-67
2022/09/02 10:27:14;;;;;;;;;6.00;5.00;;;;;20.87;44.75;101536.44;4988431;28;8833;-66
2022/09/02 10:29:56;;;;;;;;;3.75;3.75;;;;;20.95;44.61;101533.31;4985490;28;9787;-66
2022/09/02 10:32:57;;;;;;;;;5.50;5.50;;;;;20.94;44.76;101528.91;4983125;28;8843;-64
2022/09/02 10:35:34;;;;;;;;;3.00;3.00;;;;;21.02;45.03;101532.31;4987290;28;8881;-64
2022/09/02 10:38:35;;;;;;;;;6.00;5.00;;;;;21.06;44.36;101526.09;4990323;28;8821;-65
2022/09/02 10:41:31;;;;;;;;;6.25;4.25;;;;;21.10;44.41;101523.69;4980065;28;8916;-68
2022/09/02 10:44:23;;;;;;;;;6.75;6.75;;;;;21.14;44.24;101522.94;4989355;28;8852;-66
2022/09/02 10:47:00;;;;;;;;;6.00;5.75;;;;;21.14;44.29;101519.38;4985576;28;8976;-67
2022/09/02 10:49:39;;;;;;;;;6.25;3.75;;;;;21.14;44.67;101511.16;4989840;28;8822;-67
2022/09/02 10:52:31;;;;;;;;;4.00;4.00;;;;;21.19;44.65;101514.84;4990720;28;8948;-67
2022/09/02 10:55:12;;;;;;;;;4.75;4.75;;;;;21.34;44.35;101519.75;4990262;28;8880;-67
2022/09/02 10:57:49;;;;;;;;;4.00;4.00;;;;;21.42;44.44;101510.28;4990448;28;8844;-67
2022/09/02 11:00:19;;;;;;;;;4.25;4.25;;;;;21.41;44.87;101508.63;5005533;28;8834;-66
2022/09/02 11:03:06;;;;;;;;;4.00;4.00;;;;;21.51;45.00;101502.47;4990708;28;8838;-65
2022/09/02 11:05:42;;;;;;;;;6.25;6.25;;;;;21.55;45.20;101504.44;4985476;28;8917;-66
2022/09/02 11:08:26;;;;;;;;;4.50;4.00;;;;;21.54;45.44;101494.56;4990157;28;8829;-67
2022/09/02 11:11:07;;;;;;;;;5.00;5.00;;;;;21.60;45.33;101499.06;4988386;28;8904;-67
2022/09/02 11:14:08;;;;;;;;;5.50;4.50;;;;;21.71;45.43;101500.88;4971717;28;8918;-67
2022/09/02 11:16:51;;;;;;;;;4.75;4.75;;;;;21.69;44.63;101502.19;4983843;28;8825;-67
2022/09/02 11:19:37;;;;;;;;;6.00;6.00;;;;;21.82;44.73;101501.00;4990832;28;8826;-65
2022/09/02 11:22:34;;;;;;;;;4.50;4.50;;;;;21.93;44.26;101500.06;4992246;28;8884;-65
2022/09/02 11:25:16;;;;;;;;;4.75;4.75;;;;;22.05;44.03;101500.78;4996173;28;8981;-66
2022/09/02 11:27:46;;;;;;;;;6.00;6.00;;;;;22.03;44.05;101499.34;4977651;28;8996;-67
2022/09/02 11:30:12;;;;;;;;;6.75;5.25;;;;;22.04;43.16;101490.03;4995498;28;8821;-67
2022/09/02 11:32:55;;;;;;;;;6.50;6.50;;;;;22.02;43.10;101479.34;4995893;28;8838;-66
2022/09/02 11:35:26;;;;;;;;;6.00;6.00;;;;;22.11;43.41;101482.44;4981501;28;8933;-66
2022/09/02 11:37:58;;;;;;;;;3.50;3.50;;;;;22.26;43.24;101476.38;4991629;28;8834;-66
2022/09/02 11:40:38;;;;;;;;;6.50;6.50;;;;;22.43;42.20;101479.84;4995728;28;8877;-66
2022/09/02 11:43:32;;;;;;;;;5.25;5.25;;;;;22.43;42.15;101471.59;4993252;28;8829;-66
2022/09/02 11:46:32;;;;;;;;;7.50;5.50;;;;;22.39;42.17;101467.72;4993332;28;9836;-64
2022/09/02 11:49:01;;;;;;;;;5.00;5.00;;;;;22.42;42.40;101479.00;4977442;28;8826;-64
2022/09/02 11:51:53;;;;;;;;;6.00;5.50;;;;;22.42;41.92;101467.22;4994184;28;8949;-66
2022/09/02 11:54:23;;;;;;;;;6.00;5.75;;;;;22.51;41.88;101460.16;4994883;28;8916;-66
2022/09/02 11:56:58;;;;;;;;;7.00;6.75;;;;;22.68;41.01;101458.13;4994064;28;8786;-67
2022/09/02 11:59:49;;;;;;;;;6.50;6.50;;;;;22.63;41.40;101455.34;4992872;28;8963;-64